sensor_id;sensor_type;location;lat;lon;timestamp;temperature;humidity
5246;DHT22;54412;51.206;6.888;2022-07-22T00:02:13;19.60;99.90
5246;DHT22;54412;51.206;6.888;2022-07-22T00:04:39;19.60;99.90
5246;DHT22;54412;51.206;6.888;2022-07-22T00:07:05;19.70;99.90
5246;DHT22;54412;51.206;6.888;2022-07-22T00:09:30;19.50;99.90
5246;DHT22;54412;51.206;6.888;2022-07-22T00:11:56;19.40;99.90
5246;DHT22;54412;51.206;6.888;2022-07-22T00:14:22;19.50;99.90
5246;DHT22;54412;51.206;6.888;2022-07-22T00:16:48;19.60;99.90
5246;DHT22;54412;51.206;6.888;2022-07-22T00:19:13;19.60;99.90
5246;DHT22;54412;51.206;6.888;2022-07-22T00:21:39;19.60;99.90
5246;DHT22;54412;51.206;6.888;2022-07-22T00:24:05;19.50;99.90
5246;DHT22;54412;51.206;6.888;2022-07-22T00:26:31;19.50;99.90
5246;DHT22;54412;51.206;6.888;2022-07-22T00:28:57;19.40;99.90
5246;DHT22;54412;51.206;6.888;2022-07-22T00:31:23;19.30;99.90
5246;DHT22;54412;51.206;6.888;2022-07-22T00:33:48;19.30;99.90
5246;DHT22;54412;51.206;6.888;2022-07-22T00:36:14;19.20;99.90
5246;DHT22;54412;51.206;6.888;2022-07-22T00:38:40;19.30;99.90
5246;DHT22;54412;51.206;6.888;2022-07-22T00:41:06;19.30;99.90
5246;DHT22;54412;51.206;6.888;2022-07-22T00:44:00;19.30;99.90
5246;DHT22;54412;51.206;6.888;2022-07-22T00:46:29;19.30;99.90
5246;DHT22;54412;51.206;6.888;2022-07-22T00:48:56;19.40;99.90
5246;DHT22;54412;51.206;6.888;2022-07-22T00:51:25;19.20;99.90
5246;DHT22;54412;51.206;6.888;2022-07-22T00:53:52;19.10;99.90
5246;DHT22;54412;51.206;6.888;2022-07-22T00:56:20;19.10;99.90
5246;DHT22;54412;51.206;6.888;2022-07-22T00:58:48;19.10;99.90
5246;DHT22;54412;51.206;6.888;2022-07-22T01:01:16;19.10;99.90
5246;DHT22;54412;51.206;6.888;2022-07-22T01:03:42;19.10;99.90
5246;DHT22;54412;51.206;6.888;2022-07-22T01:06:08;19.10;99.90
5246;DHT22;54412;51.206;6.888;2022-07-22T01:08:35;19.10;99.90
5246;DHT22;54412;51.206;6.888;2022-07-22T01:11:07;19.00;99.90
5246;DHT22;54412;51.206;6.888;2022-07-22T01:13:38;19.10;99.90
5246;DHT22;54412;51.206;6.888;2022-07-22T01:16:06;19.10;99.90
5246;DHT22;54412;51.206;6.888;2022-07-22T01:18:33;19.10;99.90
5246;DHT22;54412;51.206;6.888;2022-07-22T01:20:59;19.20;99.90
5246;DHT22;54412;51.206;6.888;2022-07-22T01:23:25;19.10;99.90
5246;DHT22;54412;51.206;6.888;2022-07-22T01:25:51;19.10;99.90
5246;DHT22;54412;51.206;6.888;2022-07-22T01:28:17;19.10;99.90
5246;DHT22;54412;51.206;6.888;2022-07-22T01:30:43;19.10;99.90
5246;DHT22;54412;51.206;6.888;2022-07-22T01:33:08;19.10;99.90
5246;DHT22;54412;51.206;6.888;2022-07-22T01:35:34;19.00;99.90
5246;DHT22;54412;51.206;6.888;2022-07-22T01:38:00;19.00;99.90
5246;DHT22;54412;51.206;6.888;2022-07-22T01:40:26;19.10;99.90
5246;DHT22;54412;51.206;6.888;2022-07-22T01:42:51;19.10;99.90
5246;DHT22;54412;51.206;6.888;2022-07-22T01:45:17;19.10;99.90
5246;DHT22;54412;51.206;6.888;2022-07-22T01:47:43;19.10;99.90
5246;DHT22;54412;51.206;6.888;2022-07-22T01:50:10;19.00;99.90
5246;DHT22;54412;51.206;6.888;2022-07-22T01:52:38;19.00;99.90
5246;DHT22;54412;51.206;6.888;2022-07-22T01:55:06;19.00;99.90
5246;DHT22;54412;51.206;6.888;2022-07-22T01:57:33;18.90;99.90
5246;DHT22;54412;51.206;6.888;2022-07-22T01:59:59;18.90;99.90
5246;DHT22;54412;51.206;6.888;2022-07-22T02:02:24;19.00;99.90
5246;DHT22;54412;51.206;6.888;2022-07-22T02:04:50;19.00;99.90
5246;DHT22;54412;51.206;6.888;2022-07-22T02:07:16;19.00;99.90
5246;DHT22;54412;51.206;6.888;2022-07-22T02:09:41;19.10;99.90
5246;DHT22;54412;51.206;6.888;2022-07-22T02:12:07;19.00;99.90
5246;DHT22;54412;51.206;6.888;2022-07-22T02:14:33;19.00;99.90
5246;DHT22;54412;51.206;6.888;2022-07-22T02:16:59;19.00;99.90
5246;DHT22;54412;51.206;6.888;2022-07-22T02:19:25;19.00;99.90
5246;DHT22;54412;51.206;6.888;2022-07-22T02:21:51;19.00;99.90
5246;DHT22;54412;51.206;6.888;2022-07-22T02:24:16;19.00;99.90
5246;DHT22;54412;51.206;6.888;2022-07-22T02:26:42;19.00;99.90
5246;DHT22;54412;51.206;6.888;2022-07-22T02:29:08;18.90;99.90
5246;DHT22;54412;51.206;6.888;2022-07-22T02:31:33;18.90;99.90
5246;DHT22;54412;51.206;6.888;2022-07-22T02:33:59;19.00;99.90
5246;DHT22;54412;51.206;6.888;2022-07-22T02:36:25;19.00;99.90
5246;DHT22;54412;51.206;6.888;2022-07-22T02:38:51;19.00;99.90
5246;DHT22;54412;51.206;6.888;2022-07-22T02:41:16;19.10;99.90
5246;DHT22;54412;51.206;6.888;2022-07-22T02:43:42;19.00;99.90
5246;DHT22;54412;51.206;6.888;2022-07-22T02:46:08;19.00;99.90
5246;DHT22;54412;51.206;6.888;2022-07-22T02:48:33;19.00;99.90
5246;DHT22;54412;51.206;6.888;2022-07-22T02:50:59;19.00;99.90
5246;DHT22;54412;51.206;6.888;2022-07-22T02:53:25;18.90;99.90
5246;DHT22;54412;51.206;6.888;2022-07-22T02:55:51;18.90;99.90
5246;DHT22;54412;51.206;6.888;2022-07-22T02:58:16;19.00;99.90
5246;DHT22;54412;51.206;6.888;2022-07-22T03:00:42;19.00;99.90
5246;DHT22;54412;51.206;6.888;2022-07-22T03:03:08;19.00;99.90
5246;DHT22;54412;51.206;6.888;2022-07-22T03:05:33;19.00;99.90
5246;DHT22;54412;51.206;6.888;2022-07-22T03:07:59;19.00;99.90
5246;DHT22;54412;51.206;6.888;2022-07-22T03:10:25;19.00;99.90
5246;DHT22;54412;51.206;6.888;2022-07-22T03:12:50;19.00;99.90
5246;DHT22;54412;51.206;6.888;2022-07-22T03:15:16;19.00;99.90
5246;DHT22;54412;51.206;6.888;2022-07-22T03:17:42;19.00;99.90
5246;DHT22;54412;51.206;6.888;2022-07-22T03:20:09;19.00;99.90
5246;DHT22;54412;51.206;6.888;2022-07-22T03:22:36;18.90;99.90
5246;DHT22;54412;51.206;6.888;2022-07-22T03:25:03;18.90;99.90
5246;DHT22;54412;51.206;6.888;2022-07-22T03:27:29;18.90;99.90
5246;DHT22;54412;51.206;6.888;2022-07-22T03:29:55;18.90;99.90
5246;DHT22;54412;51.206;6.888;2022-07-22T03:32:20;18.90;99.90
5246;DHT22;54412;51.206;6.888;2022-07-22T03:34:46;18.90;99.90
5246;DHT22;54412;51.206;6.888;2022-07-22T03:37:12;18.90;99.90
5246;DHT22;54412;51.206;6.888;2022-07-22T03:39:38;18.90;99.90
5246;DHT22;54412;51.206;6.888;2022-07-22T03:42:04;18.90;99.90
5246;DHT22;54412;51.206;6.888;2022-07-22T03:44:29;18.90;99.90
5246;DHT22;54412;51.206;6.888;2022-07-22T03:46:55;18.90;99.90
5246;DHT22;54412;51.206;6.888;2022-07-22T03:49:21;18.90;99.90
5246;DHT22;54412;51.206;6.888;2022-07-22T03:51:47;18.90;99.90
5246;DHT22;54412;51.206;6.888;2022-07-22T03:54:13;18.90;99.90
5246;DHT22;54412;51.206;6.888;2022-07-22T03:56:39;18.90;99.90
5246;DHT22;54412;51.206;6.888;2022-07-22T03:59:04;18.90;99.90
5246;DHT22;54412;51.206;6.888;2022-07-22T04:01:30;18.80;99.90
5246;DHT22;54412;51.206;6.888;2022-07-22T04:03:56;18.80;99.90
5246;DHT22;54412;51.206;6.888;2022-07-22T04:06:21;18.80;99.90
5246;DHT22;54412;51.206;6.888;2022-07-22T04:08:47;18.70;99.90
5246;DHT22;54412;51.206;6.888;2022-07-22T04:11:14;18.70;99.90
5246;DHT22;54412;51.206;6.888;2022-07-22T04:13:39;18.80;99.90
5246;DHT22;54412;51.206;6.888;2022-07-22T04:16:05;18.70;99.90
5246;DHT22;54412;51.206;6.888;2022-07-22T04:18:31;18.70;99.90
5246;DHT22;54412;51.206;6.888;2022-07-22T04:20:58;18.70;99.90
5246;DHT22;54412;51.206;6.888;2022-07-22T04:23:24;18.80;99.90
5246;DHT22;54412;51.206;6.888;2022-07-22T04:25:50;18.80;99.90
5246;DHT22;54412;51.206;6.888;2022-07-22T04:28:15;18.80;99.90
5246;DHT22;54412;51.206;6.888;2022-07-22T04:30:41;18.70;99.90
5246;DHT22;54412;51.206;6.888;2022-07-22T04:33:07;18.70;99.90
5246;DHT22;54412;51.206;6.888;2022-07-22T04:35:33;18.60;99.90
5246;DHT22;54412;51.206;6.888;2022-07-22T04:37:59;18.60;99.90
5246;DHT22;54412;51.206;6.888;2022-07-22T04:40:24;18.40;99.90
5246;DHT22;54412;51.206;6.888;2022-07-22T04:42:50;18.50;99.90
5246;DHT22;54412;51.206;6.888;2022-07-22T04:45:16;18.50;99.90
5246;DHT22;54412;51.206;6.888;2022-07-22T04:47:42;18.50;99.90
5246;DHT22;54412;51.206;6.888;2022-07-22T04:50:08;18.60;99.90
5246;DHT22;54412;51.206;6.888;2022-07-22T04:52:34;18.40;99.90
5246;DHT22;54412;51.206;6.888;2022-07-22T04:54:59;18.50;99.90
5246;DHT22;54412;51.206;6.888;2022-07-22T04:57:25;18.50;99.90
5246;DHT22;54412;51.206;6.888;2022-07-22T04:59:52;18.50;99.90
5246;DHT22;54412;51.206;6.888;2022-07-22T05:02:19;18.50;99.90
5246;DHT22;54412;51.206;6.888;2022-07-22T05:04:44;18.60;99.90
5246;DHT22;54412;51.206;6.888;2022-07-22T05:07:10;18.60;99.90
5246;DHT22;54412;51.206;6.888;2022-07-22T05:09:36;18.60;99.90
5246;DHT22;54412;51.206;6.888;2022-07-22T05:12:03;18.60;99.90
5246;DHT22;54412;51.206;6.888;2022-07-22T05:14:29;18.70;99.90
5246;DHT22;54412;51.206;6.888;2022-07-22T05:16:55;18.70;99.90
5246;DHT22;54412;51.206;6.888;2022-07-22T05:19:21;18.70;99.90
5246;DHT22;54412;51.206;6.888;2022-07-22T05:21:47;18.80;99.90
5246;DHT22;54412;51.206;6.888;2022-07-22T05:24:13;18.70;99.90
5246;DHT22;54412;51.206;6.888;2022-07-22T05:26:38;18.70;99.90
5246;DHT22;54412;51.206;6.888;2022-07-22T05:29:04;18.70;99.90
5246;DHT22;54412;51.206;6.888;2022-07-22T05:31:30;18.60;99.90
5246;DHT22;54412;51.206;6.888;2022-07-22T05:33:56;18.50;99.90
5246;DHT22;54412;51.206;6.888;2022-07-22T05:36:22;18.60;99.90
5246;DHT22;54412;51.206;6.888;2022-07-22T05:38:48;18.60;99.90
5246;DHT22;54412;51.206;6.888;2022-07-22T05:41:13;18.60;99.90
5246;DHT22;54412;51.206;6.888;2022-07-22T05:43:39;18.60;99.90
5246;DHT22;54412;51.206;6.888;2022-07-22T05:46:05;18.60;99.90
5246;DHT22;54412;51.206;6.888;2022-07-22T05:48:32;18.60;99.90
5246;DHT22;54412;51.206;6.888;2022-07-22T05:50:58;18.60;99.90
5246;DHT22;54412;51.206;6.888;2022-07-22T05:53:24;18.60;99.90
5246;DHT22;54412;51.206;6.888;2022-07-22T05:55:50;18.70;99.90
5246;DHT22;54412;51.206;6.888;2022-07-22T05:58:16;18.60;99.90
5246;DHT22;54412;51.206;6.888;2022-07-22T06:00:41;18.60;99.90
5246;DHT22;54412;51.206;6.888;2022-07-22T06:03:07;18.60;99.90
5246;DHT22;54412;51.206;6.888;2022-07-22T06:05:33;18.70;99.90
5246;DHT22;54412;51.206;6.888;2022-07-22T06:08:01;18.70;99.90
5246;DHT22;54412;51.206;6.888;2022-07-22T06:10:27;18.70;99.90
5246;DHT22;54412;51.206;6.888;2022-07-22T06:12:53;18.70;99.90
5246;DHT22;54412;51.206;6.888;2022-07-22T06:15:18;18.70;99.90
5246;DHT22;54412;51.206;6.888;2022-07-22T06:17:44;18.70;99.90
5246;DHT22;54412;51.206;6.888;2022-07-22T06:20:10;18.80;99.90
5246;DHT22;54412;51.206;6.888;2022-07-22T06:22:35;18.90;99.90
5246;DHT22;54412;51.206;6.888;2022-07-22T06:25:01;18.70;99.90
5246;DHT22;54412;51.206;6.888;2022-07-22T06:27:27;18.90;99.90
5246;DHT22;54412;51.206;6.888;2022-07-22T06:29:53;18.90;99.90
5246;DHT22;54412;51.206;6.888;2022-07-22T06:32:18;19.10;99.90
5246;DHT22;54412;51.206;6.888;2022-07-22T06:34:44;19.20;99.90
5246;DHT22;54412;51.206;6.888;2022-07-22T06:37:10;19.20;99.90
5246;DHT22;54412;51.206;6.888;2022-07-22T06:39:36;19.10;99.90
5246;DHT22;54412;51.206;6.888;2022-07-22T06:42:01;19.20;99.90
5246;DHT22;54412;51.206;6.888;2022-07-22T06:44:27;19.30;99.90
5246;DHT22;54412;51.206;6.888;2022-07-22T06:46:53;19.40;99.90
5246;DHT22;54412;51.206;6.888;2022-07-22T06:49:18;19.40;99.90
5246;DHT22;54412;51.206;6.888;2022-07-22T06:51:44;19.30;99.90
5246;DHT22;54412;51.206;6.888;2022-07-22T06:54:10;19.30;99.90
5246;DHT22;54412;51.206;6.888;2022-07-22T06:56:35;19.40;99.90
5246;DHT22;54412;51.206;6.888;2022-07-22T06:59:01;19.40;99.90
5246;DHT22;54412;51.206;6.888;2022-07-22T07:01:27;19.40;99.90
5246;DHT22;54412;51.206;6.888;2022-07-22T07:03:53;19.30;99.90
5246;DHT22;54412;51.206;6.888;2022-07-22T07:06:19;19.30;99.90
5246;DHT22;54412;51.206;6.888;2022-07-22T07:08:45;19.30;99.90
5246;DHT22;54412;51.206;6.888;2022-07-22T07:11:11;19.40;99.90
5246;DHT22;54412;51.206;6.888;2022-07-22T07:13:36;19.40;99.90
5246;DHT22;54412;51.206;6.888;2022-07-22T07:16:02;19.40;99.90
5246;DHT22;54412;51.206;6.888;2022-07-22T07:18:28;19.20;99.90
5246;DHT22;54412;51.206;6.888;2022-07-22T07:20:54;19.30;99.90
5246;DHT22;54412;51.206;6.888;2022-07-22T07:23:20;19.40;99.90
5246;DHT22;54412;51.206;6.888;2022-07-22T07:25:46;19.50;99.90
5246;DHT22;54412;51.206;6.888;2022-07-22T07:28:12;19.60;99.90
5246;DHT22;54412;51.206;6.888;2022-07-22T07:30:38;19.60;99.90
5246;DHT22;54412;51.206;6.888;2022-07-22T07:33:03;19.60;99.90
5246;DHT22;54412;51.206;6.888;2022-07-22T07:35:29;19.60;99.90
5246;DHT22;54412;51.206;6.888;2022-07-22T07:37:55;19.60;99.90
5246;DHT22;54412;51.206;6.888;2022-07-22T07:40:21;19.50;99.90
5246;DHT22;54412;51.206;6.888;2022-07-22T07:42:46;19.40;99.90
5246;DHT22;54412;51.206;6.888;2022-07-22T07:45:12;19.40;99.90
5246;DHT22;54412;51.206;6.888;2022-07-22T07:47:38;19.30;99.90
5246;DHT22;54412;51.206;6.888;2022-07-22T07:50:05;19.40;99.90
5246;DHT22;54412;51.206;6.888;2022-07-22T07:52:37;19.30;99.90
5246;DHT22;54412;51.206;6.888;2022-07-22T07:55:08;19.40;99.90
5246;DHT22;54412;51.206;6.888;2022-07-22T07:57:35;19.40;99.90
5246;DHT22;54412;51.206;6.888;2022-07-22T08:00:05;19.40;99.90
5246;DHT22;54412;51.206;6.888;2022-07-22T08:02:34;19.50;99.90
5246;DHT22;54412;51.206;6.888;2022-07-22T08:05:00;19.60;99.90
5246;DHT22;54412;51.206;6.888;2022-07-22T08:07:27;19.60;99.90
5246;DHT22;54412;51.206;6.888;2022-07-22T08:09:53;19.60;99.90
5246;DHT22;54412;51.206;6.888;2022-07-22T08:12:19;19.70;99.90
5246;DHT22;54412;51.206;6.888;2022-07-22T08:14:44;19.80;99.90
5246;DHT22;54412;51.206;6.888;2022-07-22T08:17:10;19.80;99.90
5246;DHT22;54412;51.206;6.888;2022-07-22T08:19:36;19.70;99.90
5246;DHT22;54412;51.206;6.888;2022-07-22T08:22:02;19.70;99.90
5246;DHT22;54412;51.206;6.888;2022-07-22T08:24:28;19.60;99.90
5246;DHT22;54412;51.206;6.888;2022-07-22T08:26:54;19.60;99.90
5246;DHT22;54412;51.206;6.888;2022-07-22T08:29:19;19.50;99.90
5246;DHT22;54412;51.206;6.888;2022-07-22T08:31:45;19.60;99.90
5246;DHT22;54412;51.206;6.888;2022-07-22T08:34:11;19.40;99.90
5246;DHT22;54412;51.206;6.888;2022-07-22T08:36:37;19.50;99.90
5246;DHT22;54412;51.206;6.888;2022-07-22T08:39:03;19.50;99.90
5246;DHT22;54412;51.206;6.888;2022-07-22T08:41:34;19.50;99.90
5246;DHT22;54412;51.206;6.888;2022-07-22T08:44:05;19.50;99.90
5246;DHT22;54412;51.206;6.888;2022-07-22T08:46:32;19.60;99.90
5246;DHT22;54412;51.206;6.888;2022-07-22T08:48:58;19.60;99.90
5246;DHT22;54412;51.206;6.888;2022-07-22T08:51:26;19.60;99.90
5246;DHT22;54412;51.206;6.888;2022-07-22T08:53:53;19.70;99.90
5246;DHT22;54412;51.206;6.888;2022-07-22T08:56:20;19.70;99.90
5246;DHT22;54412;51.206;6.888;2022-07-22T08:58:45;19.60;99.90
5246;DHT22;54412;51.206;6.888;2022-07-22T09:01:14;19.70;99.90
5246;DHT22;54412;51.206;6.888;2022-07-22T09:03:50;19.80;99.90
5246;DHT22;54412;51.206;6.888;2022-07-22T09:06:19;19.70;99.90
5246;DHT22;54412;51.206;6.888;2022-07-22T09:08:51;19.50;99.90
5246;DHT22;54412;51.206;6.888;2022-07-22T09:11:18;19.50;99.90
5246;DHT22;54412;51.206;6.888;2022-07-22T09:13:46;19.40;99.90
5246;DHT22;54412;51.206;6.888;2022-07-22T09:16:13;19.40;99.90
5246;DHT22;54412;51.206;6.888;2022-07-22T09:18:53;19.40;99.90
5246;DHT22;54412;51.206;6.888;2022-07-22T09:21:23;19.40;99.90
5246;DHT22;54412;51.206;6.888;2022-07-22T09:23:48;19.50;99.90
5246;DHT22;54412;51.206;6.888;2022-07-22T09:28:58;19.40;99.90
5246;DHT22;54412;51.206;6.888;2022-07-22T09:31:30;19.50;99.90
5246;DHT22;54412;51.206;6.888;2022-07-22T09:33:58;19.40;99.90
5246;DHT22;54412;51.206;6.888;2022-07-22T09:36:25;19.40;99.90
5246;DHT22;54412;51.206;6.888;2022-07-22T09:38:52;19.60;99.90
5246;DHT22;54412;51.206;6.888;2022-07-22T09:41:18;19.60;99.90
5246;DHT22;54412;51.206;6.888;2022-07-22T09:43:44;19.60;99.90
5246;DHT22;54412;51.206;6.888;2022-07-22T09:46:11;19.70;99.90
5246;DHT22;54412;51.206;6.888;2022-07-22T09:48:38;19.60;99.90
5246;DHT22;54412;51.206;6.888;2022-07-22T09:51:05;19.80;99.90
5246;DHT22;54412;51.206;6.888;2022-07-22T09:53:32;19.90;99.90
5246;DHT22;54412;51.206;6.888;2022-07-22T09:56:00;20.00;99.90
5246;DHT22;54412;51.206;6.888;2022-07-22T09:58:28;20.00;99.90
5246;DHT22;54412;51.206;6.888;2022-07-22T10:00:59;20.00;99.90
5246;DHT22;54412;51.206;6.888;2022-07-22T10:03:35;20.10;99.90
5246;DHT22;54412;51.206;6.888;2022-07-22T10:06:03;20.40;99.90
5246;DHT22;54412;51.206;6.888;2022-07-22T10:08:31;20.40;99.90
5246;DHT22;54412;51.206;6.888;2022-07-22T10:11:01;20.60;99.90
5246;DHT22;54412;51.206;6.888;2022-07-22T10:13:32;20.70;99.90
5246;DHT22;54412;51.206;6.888;2022-07-22T10:16:00;20.70;99.90
5246;DHT22;54412;51.206;6.888;2022-07-22T10:18:26;20.80;99.90
5246;DHT22;54412;51.206;6.888;2022-07-22T10:21:05;20.90;99.90
5246;DHT22;54412;51.206;6.888;2022-07-22T10:23:33;21.00;99.90
5246;DHT22;54412;51.206;6.888;2022-07-22T10:26:00;21.10;99.90
5246;DHT22;54412;51.206;6.888;2022-07-22T10:28:33;21.20;99.90
5246;DHT22;54412;51.206;6.888;2022-07-22T10:33:41;21.20;99.90
5246;DHT22;54412;51.206;6.888;2022-07-22T10:36:10;21.50;99.90
5246;DHT22;54412;51.206;6.888;2022-07-22T10:38:36;21.40;99.90
5246;DHT22;54412;51.206;6.888;2022-07-22T10:41:04;21.50;99.90
5246;DHT22;54412;51.206;6.888;2022-07-22T10:46:08;21.60;99.90
5246;DHT22;54412;51.206;6.888;2022-07-22T10:51:20;21.70;99.90
5246;DHT22;54412;51.206;6.888;2022-07-22T10:54:00;21.80;99.90
5246;DHT22;54412;51.206;6.888;2022-07-22T10:56:30;21.80;99.90
5246;DHT22;54412;51.206;6.888;2022-07-22T10:59:10;21.80;99.90
5246;DHT22;54412;51.206;6.888;2022-07-22T11:01:39;21.90;99.90
5246;DHT22;54412;51.206;6.888;2022-07-22T11:04:19;22.00;99.90
5246;DHT22;54412;51.206;6.888;2022-07-22T11:06:54;22.10;99.90
5246;DHT22;54412;51.206;6.888;2022-07-22T11:09:23;22.20;99.90
5246;DHT22;54412;51.206;6.888;2022-07-22T11:11:57;22.30;99.90
5246;DHT22;54412;51.206;6.888;2022-07-22T11:14:28;22.30;99.90
5246;DHT22;54412;51.206;6.888;2022-07-22T11:17:07;22.20;99.90
5246;DHT22;54412;51.206;6.888;2022-07-22T11:19:35;22.30;99.90
5246;DHT22;54412;51.206;6.888;2022-07-22T11:22:08;22.50;99.90
5246;DHT22;54412;51.206;6.888;2022-07-22T11:24:37;22.50;99.90
5246;DHT22;54412;51.206;6.888;2022-07-22T11:27:04;22.50;99.90
5246;DHT22;54412;51.206;6.888;2022-07-22T11:29:35;22.40;99.90
5246;DHT22;54412;51.206;6.888;2022-07-22T11:32:10;22.40;99.90
5246;DHT22;54412;51.206;6.888;2022-07-22T11:34:38;22.70;99.90
5246;DHT22;54412;51.206;6.888;2022-07-22T11:37:10;22.70;99.90
5246;DHT22;54412;51.206;6.888;2022-07-22T11:39:37;23.00;99.90
5246;DHT22;54412;51.206;6.888;2022-07-22T11:42:03;23.20;99.90
5246;DHT22;54412;51.206;6.888;2022-07-22T11:44:31;23.00;99.90
5246;DHT22;54412;51.206;6.888;2022-07-22T11:46:59;22.70;99.90
5246;DHT22;54412;51.206;6.888;2022-07-22T11:49:28;22.50;99.90
5246;DHT22;54412;51.206;6.888;2022-07-22T11:51:55;22.50;99.90
5246;DHT22;54412;51.206;6.888;2022-07-22T11:54:21;22.60;99.90
5246;DHT22;54412;51.206;6.888;2022-07-22T11:56:47;22.60;99.90
5246;DHT22;54412;51.206;6.888;2022-07-22T11:59:17;22.60;99.90
5246;DHT22;54412;51.206;6.888;2022-07-22T12:01:44;22.20;99.90
5246;DHT22;54412;51.206;6.888;2022-07-22T12:04:18;22.10;99.90
5246;DHT22;54412;51.206;6.888;2022-07-22T12:06:52;22.20;99.90
5246;DHT22;54412;51.206;6.888;2022-07-22T12:09:28;22.30;99.90
5246;DHT22;54412;51.206;6.888;2022-07-22T12:11:57;22.60;99.90
5246;DHT22;54412;51.206;6.888;2022-07-22T12:14:28;22.90;99.90
5246;DHT22;54412;51.206;6.888;2022-07-22T12:17:00;23.00;99.90
5246;DHT22;54412;51.206;6.888;2022-07-22T12:19:29;22.70;99.90
5246;DHT22;54412;51.206;6.888;2022-07-22T12:22:00;22.70;99.90
5246;DHT22;54412;51.206;6.888;2022-07-22T12:24:35;22.90;99.90
5246;DHT22;54412;51.206;6.888;2022-07-22T12:27:07;22.90;99.90
5246;DHT22;54412;51.206;6.888;2022-07-22T12:32:08;23.10;99.90
5246;DHT22;54412;51.206;6.888;2022-07-22T12:34:42;23.40;99.90
5246;DHT22;54412;51.206;6.888;2022-07-22T12:37:17;23.70;99.90
5246;DHT22;54412;51.206;6.888;2022-07-22T12:42:43;23.60;99.90
5246;DHT22;54412;51.206;6.888;2022-07-22T12:45:13;23.60;99.90
5246;DHT22;54412;51.206;6.888;2022-07-22T12:50:30;23.70;99.90
5246;DHT22;54412;51.206;6.888;2022-07-22T12:53:14;23.50;99.90
5246;DHT22;54412;51.206;6.888;2022-07-22T12:55:44;23.40;99.90
5246;DHT22;54412;51.206;6.888;2022-07-22T12:58:14;23.50;99.90
5246;DHT22;54412;51.206;6.888;2022-07-22T13:00:43;23.70;99.90
5246;DHT22;54412;51.206;6.888;2022-07-22T13:03:10;23.60;99.90
5246;DHT22;54412;51.206;6.888;2022-07-22T13:05:36;23.80;99.90
5246;DHT22;54412;51.206;6.888;2022-07-22T13:08:02;23.70;99.90
5246;DHT22;54412;51.206;6.888;2022-07-22T13:10:29;23.60;99.90
5246;DHT22;54412;51.206;6.888;2022-07-22T13:12:55;23.60;99.90
5246;DHT22;54412;51.206;6.888;2022-07-22T13:15:22;23.70;99.90
5246;DHT22;54412;51.206;6.888;2022-07-22T13:17:49;23.90;99.90
5246;DHT22;54412;51.206;6.888;2022-07-22T13:20:16;24.00;99.90
5246;DHT22;54412;51.206;6.888;2022-07-22T13:22:43;24.00;99.90
5246;DHT22;54412;51.206;6.888;2022-07-22T13:25:10;24.10;99.90
5246;DHT22;54412;51.206;6.888;2022-07-22T13:27:37;24.10;99.90
5246;DHT22;54412;51.206;6.888;2022-07-22T13:30:03;24.10;99.90
5246;DHT22;54412;51.206;6.888;2022-07-22T13:32:29;24.00;99.90
5246;DHT22;54412;51.206;6.888;2022-07-22T13:34:55;24.20;99.90
5246;DHT22;54412;51.206;6.888;2022-07-22T13:37:22;23.90;99.90
5246;DHT22;54412;51.206;6.888;2022-07-22T13:39:48;24.10;99.90
5246;DHT22;54412;51.206;6.888;2022-07-22T13:42:15;24.30;99.90
5246;DHT22;54412;51.206;6.888;2022-07-22T13:44:45;24.40;99.90
5246;DHT22;54412;51.206;6.888;2022-07-22T13:47:12;24.50;99.90
5246;DHT22;54412;51.206;6.888;2022-07-22T13:49:38;24.50;99.90
5246;DHT22;54412;51.206;6.888;2022-07-22T13:52:04;24.60;99.90
5246;DHT22;54412;51.206;6.888;2022-07-22T13:54:31;24.60;99.90
5246;DHT22;54412;51.206;6.888;2022-07-22T13:56:58;24.80;99.90
5246;DHT22;54412;51.206;6.888;2022-07-22T13:59:25;24.60;99.90
5246;DHT22;54412;51.206;6.888;2022-07-22T14:01:52;24.60;99.90
5246;DHT22;54412;51.206;6.888;2022-07-22T14:04:18;24.60;99.90
5246;DHT22;54412;51.206;6.888;2022-07-22T14:06:44;24.70;99.90
5246;DHT22;54412;51.206;6.888;2022-07-22T14:09:09;24.70;99.90
5246;DHT22;54412;51.206;6.888;2022-07-22T14:11:35;24.70;99.90
5246;DHT22;54412;51.206;6.888;2022-07-22T14:14:01;24.90;99.90
5246;DHT22;54412;51.206;6.888;2022-07-22T14:16:27;25.00;99.90
5246;DHT22;54412;51.206;6.888;2022-07-22T14:19:06;25.00;99.90
5246;DHT22;54412;51.206;6.888;2022-07-22T14:21:34;24.90;99.90
5246;DHT22;54412;51.206;6.888;2022-07-22T14:24:01;24.90;99.90
5246;DHT22;54412;51.206;6.888;2022-07-22T14:26:28;24.90;99.90
5246;DHT22;54412;51.206;6.888;2022-07-22T14:28:55;24.50;99.90
5246;DHT22;54412;51.206;6.888;2022-07-22T14:31:20;24.40;99.90
5246;DHT22;54412;51.206;6.888;2022-07-22T14:33:47;24.50;99.90
5246;DHT22;54412;51.206;6.888;2022-07-22T14:36:13;24.50;99.90
5246;DHT22;54412;51.206;6.888;2022-07-22T14:38:39;24.40;99.90
5246;DHT22;54412;51.206;6.888;2022-07-22T14:41:05;24.50;99.90
5246;DHT22;54412;51.206;6.888;2022-07-22T14:43:32;24.40;99.90
5246;DHT22;54412;51.206;6.888;2022-07-22T14:45:59;24.40;99.90
5246;DHT22;54412;51.206;6.888;2022-07-22T14:48:27;24.30;99.90
5246;DHT22;54412;51.206;6.888;2022-07-22T14:50:53;24.20;99.90
5246;DHT22;54412;51.206;6.888;2022-07-22T14:53:19;24.30;99.90
5246;DHT22;54412;51.206;6.888;2022-07-22T14:55:45;24.40;99.90
5246;DHT22;54412;51.206;6.888;2022-07-22T14:58:11;24.40;99.90
5246;DHT22;54412;51.206;6.888;2022-07-22T15:00:36;24.40;99.90
5246;DHT22;54412;51.206;6.888;2022-07-22T15:03:02;24.30;99.90
5246;DHT22;54412;51.206;6.888;2022-07-22T15:05:28;24.20;99.90
5246;DHT22;54412;51.206;6.888;2022-07-22T15:07:53;24.30;99.90
5246;DHT22;54412;51.206;6.888;2022-07-22T15:10:19;24.10;99.90
5246;DHT22;54412;51.206;6.888;2022-07-22T15:12:45;24.00;99.90
5246;DHT22;54412;51.206;6.888;2022-07-22T15:15:10;24.00;99.90
5246;DHT22;54412;51.206;6.888;2022-07-22T15:17:38;24.00;99.90
5246;DHT22;54412;51.206;6.888;2022-07-22T15:20:05;23.90;99.90
5246;DHT22;54412;51.206;6.888;2022-07-22T15:22:32;24.00;99.90
5246;DHT22;54412;51.206;6.888;2022-07-22T15:24:59;24.00;99.90
5246;DHT22;54412;51.206;6.888;2022-07-22T15:27:25;24.10;99.90
5246;DHT22;54412;51.206;6.888;2022-07-22T15:29:51;24.10;99.90
5246;DHT22;54412;51.206;6.888;2022-07-22T15:32:17;24.10;99.90
5246;DHT22;54412;51.206;6.888;2022-07-22T15:34:43;24.10;99.90
5246;DHT22;54412;51.206;6.888;2022-07-22T15:37:10;24.00;99.90
5246;DHT22;54412;51.206;6.888;2022-07-22T15:39:36;24.00;99.90
5246;DHT22;54412;51.206;6.888;2022-07-22T15:42:02;24.00;99.90
5246;DHT22;54412;51.206;6.888;2022-07-22T15:44:28;23.90;99.90
5246;DHT22;54412;51.206;6.888;2022-07-22T15:46:54;23.90;99.90
5246;DHT22;54412;51.206;6.888;2022-07-22T15:49:20;23.80;99.90
5246;DHT22;54412;51.206;6.888;2022-07-22T15:51:46;23.90;99.90
5246;DHT22;54412;51.206;6.888;2022-07-22T15:54:12;23.90;99.90
5246;DHT22;54412;51.206;6.888;2022-07-22T15:56:39;24.00;99.90
5246;DHT22;54412;51.206;6.888;2022-07-22T15:59:05;23.90;99.90
5246;DHT22;54412;51.206;6.888;2022-07-22T16:01:49;23.90;99.90
5246;DHT22;54412;51.206;6.888;2022-07-22T16:04:14;23.90;99.90